Time;durP1;ratioP1;P1;durP2;ratioP2;P2;SDS_P1;SDS_P2;PMS_P1;PMS_P2;Temp;Humidity;BMP_temperature;BMP_pressure;BME280_temperature;BME280_humidity;BME280_pressure;Samples;Min_cycle;Max_cycle;Signal;HPM_P1;HPM_P2
2022/06/22 00:02:11;;;;;;;0.00;0.00;;;;;;;13.06;84.85;100129.38;5050523;28;20220;-73
2022/06/22 00:04:48;;;;;;;0.00;0.00;;;;;;;13.02;85.67;100128.44;5050504;28;20195;-73
2022/06/22 00:07:20;;;;;;;0.17;0.17;;;;;;;13.00;85.63;100129.88;5050223;28;20183;-73
2022/06/22 00:09:46;;;;;;;0.00;0.00;;;;;;;12.84;86.31;100137.91;5050145;28;20378;-73
2022/06/22 00:12:27;;;;;;;0.00;0.00;;;;;;;12.69;87.50;100135.78;5050428;28;20784;-73
2022/06/22 00:14:56;;;;;;;0.00;0.00;;;;;;;12.71;88.14;100131.56;5049601;28;20174;-73
2022/06/22 00:17:35;;;;;;;0.00;0.00;;;;;;;12.69;89.15;100130.28;5049992;28;20183;-73
2022/06/22 00:20:11;;;;;;;0.00;0.00;;;;;;;12.54;89.72;100128.94;5050369;28;20386;-73
2022/06/22 00:22:50;;;;;;;0.00;0.00;;;;;;;12.54;90.58;100130.88;5050300;28;20194;-73
2022/06/22 00:25:42;;;;;;;0.00;0.00;;;;;;;12.55;90.46;100141.50;5050167;28;20757;-72
2022/06/22 00:28:23;;;;;;;0.00;0.00;;;;;;;12.52;90.63;100145.72;5045921;28;20248;-72
2022/06/22 00:30:49;;;;;;;0.10;0.10;;;;;;;12.28;91.30;100137.28;5050224;28;20171;-73
2022/06/22 00:33:21;;;;;;;0.00;0.00;;;;;;;12.12;92.52;100136.25;5050110;28;20742;-73
2022/06/22 00:35:51;;;;;;;0.10;0.10;;;;;;;11.96;94.34;100140.66;5050117;28;20181;-72
2022/06/22 00:38:28;;;;;;;0.30;0.30;;;;;;;11.90;95.00;100140.06;5049483;28;20265;-72
2022/06/22 00:40:57;;;;;;;0.00;0.00;;;;;;;11.85;95.39;100145.69;5050167;28;20171;-73
2022/06/22 00:43:28;;;;;;;0.00;0.00;;;;;;;11.93;96.18;100144.88;5049986;28;20207;-72
2022/06/22 00:45:55;;;;;;;0.00;0.00;;;;;;;11.96;96.62;100136.00;5032532;28;20569;-72
2022/06/22 00:48:33;;;;;;;0.20;0.20;;;;;;;11.90;96.31;100140.06;5049141;28;20229;-73
2022/06/22 00:51:19;;;;;;;0.00;0.00;;;;;;;11.85;96.42;100135.53;5053437;28;20171;-74
2022/06/22 00:54:00;;;;;;;0.10;0.10;;;;;;;11.83;97.01;100140.53;5054362;28;20231;-73
2022/06/22 00:56:37;;;;;;;0.00;0.00;;;;;;;11.90;97.21;100149.06;5054212;28;20174;-72
2022/06/22 00:59:02;;;;;;;0.00;0.00;;;;;;;11.94;96.62;100153.88;5053548;28;20175;-73
2022/06/22 01:01:44;;;;;;;0.00;0.00;;;;;;;11.94;96.73;100154.69;5053800;28;20191;-71
2022/06/22 01:04:24;;;;;;;0.63;0.63;;;;;;;11.95;97.71;100150.81;5053774;28;20179;-73
2022/06/22 01:07:10;;;;;;;0.20;0.20;;;;;;;11.99;97.11;100145.47;5053553;28;20182;-71
2022/06/22 01:09:38;;;;;;;0.00;0.00;;;;;;;11.85;98.13;100146.50;5053533;28;20167;-72
2022/06/22 01:12:17;;;;;;;0.00;0.00;;;;;;;11.78;99.31;100146.19;5053688;28;20180;-74
2022/06/22 01:15:11;;;;;;;0.00;0.00;;;;;;;11.77;100.00;100152.78;5052342;28;20179;-73
2022/06/22 01:17:48;;;;;;;0.00;0.00;;;;;;;11.82;99.71;100152.63;5052927;28;20167;-72
2022/06/22 01:20:27;;;;;;;0.20;0.20;;;;;;;11.79;100.00;100150.56;5053421;28;20171;-73
2022/06/22 01:23:11;;;;;;;0.00;0.00;;;;;;;11.78;100.00;100145.38;5053917;28;20207;-72
2022/06/22 01:25:36;;;;;;;0.00;0.00;;;;;;;11.80;100.00;100138.47;5053596;28;20273;-72
2022/06/22 01:28:03;;;;;;;0.00;0.00;;;;;;;11.78;100.00;100140.69;5052719;28;20171;-72
2022/06/22 01:30:35;;;;;;;0.00;0.00;;;;;;;11.77;100.00;100132.81;5053098;28;20182;-72
2022/06/22 01:33:13;;;;;;;0.10;0.10;;;;;;;11.77;100.00;100130.88;5053295;28;20249;-73
2022/06/22 01:35:39;;;;;;;0.00;0.00;;;;;;;11.73;100.00;100132.69;5053752;28;20257;-72
2022/06/22 01:38:13;;;;;;;0.10;0.10;;;;;;;11.62;100.00;100139.63;5053013;28;20254;-72
2022/06/22 01:40:51;;;;;;;0.00;0.00;;;;;;;11.56;100.00;100138.97;5053340;28;20179;-73
2022/06/22 01:43:28;;;;;;;0.00;0.00;;;;;;;11.53;100.00;100123.22;5053217;28;20210;-74
2022/06/22 01:46:07;;;;;;;0.13;0.13;;;;;;;11.46;100.00;100117.44;5053189;28;20171;-73
2022/06/22 01:48:37;;;;;;;0.00;0.00;;;;;;;11.38;100.00;100125.66;5052167;28;20671;-74
2022/06/22 01:51:25;;;;;;;0.10;0.10;;;;;;;11.30;100.00;100121.84;5053117;28;20230;-74
2022/06/22 01:54:01;;;;;;;0.00;0.00;;;;;;;11.26;100.00;100115.38;5052995;28;20175;-72
2022/06/22 01:56:37;;;;;;;0.00;0.00;;;;;;;11.22;100.00;100112.50;5052878;28;20623;-72
2022/06/22 01:59:05;;;;;;;0.67;0.67;;;;;;;11.12;100.00;100104.63;5052432;28;20189;-72
2022/06/22 02:01:48;;;;;;;0.00;0.00;;;;;;;11.06;100.00;100111.38;5052500;28;20655;-71
2022/06/22 02:04:29;;;;;;;0.53;0.53;;;;;;;11.03;100.00;100106.56;5052663;28;20175;-72
2022/06/22 02:10:05;;;;;;;1.00;0.80;;;;;;;10.99;100.00;100100.94;5052397;28;20713;-73
2022/06/22 02:12:37;;;;;;;0.00;0.00;;;;;;;11.04;100.00;100102.72;5053050;28;20183;-73
2022/06/22 02:15:21;;;;;;;0.37;0.37;;;;;;;11.01;100.00;100103.38;5051029;28;20296;-71
2022/06/22 02:17:46;;;;;;;0.00;0.00;;;;;;;11.03;100.00;100095.63;5051995;28;20179;-72
2022/06/22 02:20:17;;;;;;;0.00;0.00;;;;;;;10.97;100.00;100094.97;5052471;28;20171;-72
2022/06/22 02:22:43;;;;;;;0.00;0.00;;;;;;;11.00;100.00;100088.09;5052431;28;20195;-73
2022/06/22 02:25:08;;;;;;;0.30;0.27;;;;;;;10.97;100.00;100096.91;5052368;28;20171;-72
2022/06/22 02:27:33;;;;;;;0.00;0.00;;;;;;;10.91;100.00;100087.28;5051551;28;20263;-73
2022/06/22 02:29:59;;;;;;;0.00;0.00;;;;;;;10.86;100.00;100093.72;5052254;28;20174;-74
2022/06/22 02:32:33;;;;;;;0.00;0.00;;;;;;;10.91;100.00;100079.88;5052211;28;20379;-72
2022/06/22 02:34:59;;;;;;;0.00;0.00;;;;;;;10.85;100.00;100072.16;5052135;28;20203;-73
2022/06/22 02:37:28;;;;;;;0.00;0.00;;;;;;;10.79;100.00;100076.97;5051854;28;20176;-73
2022/06/22 02:39:58;;;;;;;0.00;0.00;;;;;;;10.78;100.00;100075.38;5051862;28;20206;-74
2022/06/22 02:45:08;;;;;;;0.20;0.20;;;;;;;10.74;100.00;100090.81;5052051;28;20241;-72
2022/06/22 02:47:51;;;;;;;0.03;0.03;;;;;;;10.71;100.00;100091.47;5051160;28;20282;-75
2022/06/22 02:50:31;;;;;;;3.60;1.50;;;;;;;10.63;100.00;100089.53;5051801;28;20696;-72
2022/06/22 02:53:00;;;;;;;0.00;0.00;;;;;;;10.58;100.00;100081.50;5051979;28;20199;-72
2022/06/22 02:55:30;;;;;;;0.30;0.30;;;;;;;10.47;100.00;100080.19;5051839;28;20179;-75
2022/06/22 02:57:59;;;;;;;0.23;0.23;;;;;;;10.56;100.00;100076.34;5051050;28;20722;-74
2022/06/22 03:00:38;;;;;;;0.37;0.37;;;;;;;10.62;100.00;100080.53;5051732;28;20481;-73
2022/06/22 03:03:14;;;;;;;0.17;0.17;;;;;;;10.60;100.00;100085.50;5051560;28;20198;-73
2022/06/22 03:05:42;;;;;;;0.00;0.00;;;;;;;10.67;100.00;100080.34;5051748;28;20175;-71
2022/06/22 03:08:08;;;;;;;4.23;0.87;;;;;;;10.70;100.00;100071.53;5050869;28;20194;-74
2022/06/22 03:10:44;;;;;;;0.60;0.60;;;;;;;10.61;100.00;100076.19;5051599;28;20683;-74
2022/06/22 03:13:16;;;;;;;0.43;0.43;;;;;;;10.55;100.00;100082.09;5049332;28;20973;-74
2022/06/22 03:15:43;;;;;;;0.07;0.07;;;;;;;10.52;100.00;100080.81;5051366;28;20176;-75
2022/06/22 03:18:15;;;;;;;0.70;0.70;;;;;;;10.50;100.00;100088.53;5050595;28;20670;-75
2022/06/22 03:20:48;;;;;;;0.53;0.53;;;;;;;10.53;100.00;100092.56;5051348;28;20179;-76
2022/06/22 03:23:42;;;;;;;1.63;1.53;;;;;;;10.60;100.00;100096.44;5051210;28;20202;-75
2022/06/22 03:26:14;;;;;;;0.37;0.37;;;;;;;10.70;100.00;100098.84;5051252;28;20179;-76
2022/06/22 03:28:46;;;;;;;0.30;0.30;;;;;;;10.85;100.00;100105.78;5050534;28;20178;-74
2022/06/22 03:31:21;;;;;;;0.07;0.07;;;;;;;10.98;100.00;100107.53;5051080;28;20229;-76
2022/06/22 03:33:53;;;;;;;0.00;0.00;;;;;;;11.08;100.00;100114.59;5050946;28;20175;-74
2022/06/22 03:36:29;;;;;;;0.67;0.67;;;;;;;11.12;100.00;100112.81;5051086;28;20631;-73
2022/06/22 03:39:01;;;;;;;0.80;0.30;;;;;;;11.15;100.00;100112.19;5050403;28;20170;-72
2022/06/22 03:41:31;;;;;;;15.40;1.13;;;;;;;11.19;100.00;100121.34;5050868;28;20553;-76
2022/06/22 03:44:14;;;;;;;0.00;0.00;;;;;;;11.27;100.00;100114.25;5050959;28;20186;-76
2022/06/22 03:46:49;;;;;;;0.00;0.00;;;;;;;11.38;100.00;100109.25;5050532;28;20174;-75
2022/06/22 03:49:42;;;;;;;0.00;0.00;;;;;;;11.47;100.00;100116.31;5050471;28;20209;-73
2022/06/22 03:52:31;;;;;;;0.57;0.20;;;;;;;11.53;100.00;100125.16;5050770;28;20720;-74
2022/06/22 03:55:04;;;;;;;0.33;0.33;;;;;;;11.57;100.00;100137.88;5050356;28;20183;-73
2022/06/22 03:57:35;;;;;;;0.40;0.40;;;;;;;11.60;100.00;100142.69;5050351;28;20171;-73
2022/06/22 04:00:03;;;;;;;8.30;0.73;;;;;;;11.68;100.00;100138.31;5050607;28;20171;-72
2022/06/22 04:02:28;;;;;;;0.83;0.30;;;;;;;11.77;100.00;100135.56;5050390;28;20206;-74
2022/06/22 04:04:55;;;;;;;0.10;0.10;;;;;;;11.85;100.00;100127.34;5050472;28;20209;-74
2022/06/22 04:07:23;;;;;;;0.00;0.00;;;;;;;11.93;100.00;100124.91;5050234;28;20179;-73
2022/06/22 04:09:52;;;;;;;0.00;0.00;;;;;;;12.04;100.00;100129.69;5032270;28;20185;-72
2022/06/22 04:12:25;;;;;;;0.57;0.30;;;;;;;12.13;100.00;100135.91;5050507;28;20187;-74
2022/06/22 04:15:13;;;;;;;0.00;0.00;;;;;;;12.15;100.00;100138.31;5048928;28;20262;-72
2022/06/22 04:17:45;;;;;;;0.47;0.47;;;;;;;12.14;100.00;100143.00;5050130;28;20187;-72
2022/06/22 04:20:22;;;;;;;0.00;0.00;;;;;;;12.17;100.00;100136.88;5050288;28;20175;-72
2022/06/22 04:22:54;;;;;;;0.00;0.00;;;;;;;12.26;100.00;100139.56;5050143;28;20207;-72
2022/06/22 04:25:36;;;;;;;0.00;0.00;;;;;;;12.33;99.60;100144.53;5050701;28;20178;-72
2022/06/22 04:28:06;;;;;;;0.27;0.27;;;;;;;12.35;98.72;100140.34;5049614;28;20533;-74
2022/06/22 04:30:41;;;;;;;0.10;0.10;;;;;;;12.39;97.87;100133.06;5050222;28;20167;-75
2022/06/22 04:33:31;;;;;;;0.00;0.00;;;;;;;12.53;97.20;100119.13;5050356;28;20258;-74
2022/06/22 04:36:24;;;;;;;0.00;0.00;;;;;;;12.63;96.01;100120.66;5050070;28;20622;-72
2022/06/22 04:39:01;;;;;;;0.10;0.10;;;;;;;12.70;94.76;100120.94;5049529;28;20547;-72
2022/06/22 04:41:27;;;;;;;0.10;0.10;;;;;;;12.79;94.23;100125.22;5050507;28;20175;-74
2022/06/22 04:43:55;;;;;;;0.00;0.00;;;;;;;12.86;93.10;100126.63;5050156;28;20171;-75
2022/06/22 04:46:27;;;;;;;0.60;0.60;;;;;;;12.90;92.90;100133.06;5050019;28;20179;-74
2022/06/22 04:48:55;;;;;;;0.10;0.10;;;;;;;12.92;93.54;100134.31;5049661;28;20186;-71
2022/06/22 04:51:25;;;;;;;0.00;0.00;;;;;;;12.92;92.54;100139.00;5050008;28;20310;-73
2022/06/22 04:53:58;;;;;;;0.10;0.10;;;;;;;12.98;93.17;100146.69;5050049;28;20168;-73
2022/06/22 04:56:31;;;;;;;0.00;0.00;;;;;;;13.06;93.36;100145.03;5050030;28;20174;-73
2022/06/22 04:58:58;;;;;;;0.00;0.00;;;;;;;13.11;92.63;100150.28;5049480;28;20198;-72
2022/06/22 05:01:27;;;;;;;0.00;0.00;;;;;;;13.21;91.82;100149.13;5050096;28;20249;-73
2022/06/22 05:03:56;;;;;;;0.00;0.00;;;;;;;13.25;91.89;100158.28;5049904;28;20198;-73
2022/06/22 05:06:32;;;;;;;0.30;0.30;;;;;;;13.29;90.52;100149.03;5049822;28;20172;-72
2022/06/22 05:09:08;;;;;;;0.00;0.00;;;;;;;13.32;89.50;100156.63;5049458;28;20230;-74
2022/06/22 05:11:44;;;;;;;0.10;0.10;;;;;;;13.40;90.21;100171.38;5049908;28;20175;-75
2022/06/22 05:14:17;;;;;;;0.20;0.20;;;;;;;13.42;90.34;100180.06;5048462;28;20171;-72
2022/06/22 05:16:48;;;;;;;0.00;0.00;;;;;;;13.37;91.06;100180.28;5050300;28;20172;-76
2022/06/22 05:19:15;;;;;;;0.57;0.57;;;;;;;13.39;90.95;100178.00;5049686;28;20643;-75
2022/06/22 05:21:45;;;;;;;0.63;0.63;;;;;;;13.43;91.24;100172.63;5049773;28;20195;-75
2022/06/22 05:24:19;;;;;;;0.00;0.00;;;;;;;13.44;90.86;100179.72;5049806;28;20505;-74
2022/06/22 05:26:46;;;;;;;0.47;0.47;;;;;;;13.47;90.49;100170.84;5049565;28;20173;-76
2022/06/22 05:29:17;;;;;;;0.00;0.00;;;;;;;13.61;90.92;100174.91;5049168;28;20182;-74
2022/06/22 05:31:47;;;;;;;0.00;0.00;;;;;;;13.68;89.05;100182.56;5049724;28;20183;-75
2022/06/22 05:34:17;;;;;;;0.30;0.30;;;;;;;13.75;88.51;100182.84;5049591;28;20175;-74
2022/06/22 05:36:48;;;;;;;0.00;0.00;;;;;;;13.83;88.26;100183.88;5052094;28;20190;-75
2022/06/22 05:39:14;;;;;;;2.27;2.10;;;;;;;13.90;88.04;100197.88;5053092;28;20247;-73
2022/06/22 05:41:45;;;;;;;0.03;0.03;;;;;;;13.92;88.41;100209.31;5053207;28;20297;-75
2022/06/22 05:44:13;;;;;;;0.00;0.00;;;;;;;13.92;88.96;100201.06;5053556;28;20194;-74
2022/06/22 05:46:49;;;;;;;0.13;0.13;;;;;;;13.97;89.27;100207.13;5052700;28;20705;-74
2022/06/22 05:49:17;;;;;;;0.20;0.20;;;;;;;14.07;89.09;100199.63;5052940;28;20236;-76
2022/06/22 05:51:52;;;;;;;0.03;0.03;;;;;;;14.12;89.01;100202.13;5052837;28;20596;-76
2022/06/22 05:54:26;;;;;;;0.00;0.00;;;;;;;14.17;89.01;100188.16;5053031;28;20181;-76
2022/06/22 05:57:09;;;;;;;0.00;0.00;;;;;;;14.22;87.67;100193.47;5052386;28;20311;-73
2022/06/22 05:59:42;;;;;;;0.20;0.20;;;;;;;14.32;87.52;100194.94;5052461;28;20175;-76
2022/06/22 06:02:16;;;;;;;0.00;0.00;;;;;;;14.57;88.02;100199.34;5052828;28;20474;-75
2022/06/22 06:04:48;;;;;;;0.00;0.00;;;;;;;14.56;86.39;100193.03;5052746;28;20181;-76
2022/06/22 06:07:33;;;;;;;0.00;0.00;;;;;;;14.66;86.48;100188.22;5052422;28;20183;-74
2022/06/22 06:10:01;;;;;;;0.00;0.00;;;;;;;14.76;86.37;100193.28;5052743;28;20753;-75
2022/06/22 06:12:35;;;;;;;0.00;0.00;;;;;;;14.91;86.86;100200.81;5052902;28;20179;-74
2022/06/22 06:15:02;;;;;;;0.00;0.00;;;;;;;15.00;86.67;100214.41;5051130;28;20171;-73
2022/06/22 06:17:35;;;;;;;0.00;0.00;;;;;;;15.02;85.77;100220.38;5052169;28;20172;-74
2022/06/22 06:20:04;;;;;;;0.00;0.00;;;;;;;15.10;86.16;100231.25;5052499;28;20179;-73
2022/06/22 06:22:30;;;;;;;0.40;0.40;;;;;;;15.08;86.21;100221.75;5052299;28;20205;-75
2022/06/22 06:27:50;;;;;;;0.00;0.00;;;;;;;15.24;88.36;100216.31;5051971;28;20186;-75
2022/06/22 06:30:26;;;;;;;0.00;0.00;;;;;;;15.39;87.40;100207.34;5052015;28;20172;-74
2022/06/22 06:33:18;;;;;;;0.00;0.00;;;;;;;15.54;87.15;100200.28;5052340;28;20258;-75
2022/06/22 06:35:55;;;;;;;0.00;0.00;;;;;;;15.71;85.85;100191.72;5052300;28;20175;-77
2022/06/22 06:38:42;;;;;;;0.00;0.00;;;;;;;15.89;84.50;100195.75;5051563;28;20178;-77
2022/06/22 06:41:07;;;;;;;0.10;0.07;;;;;;;15.97;84.65;100203.06;5051999;28;20185;-74
2022/06/22 06:43:47;;;;;;;0.00;0.00;;;;;;;15.95;84.82;100205.38;5052303;28;20597;-74
2022/06/22 06:46:19;;;;;;;0.00;0.00;;;;;;;15.92;84.28;100195.09;5051795;28;20175;-75
2022/06/22 06:48:49;;;;;;;0.00;0.00;;;;;;;15.95;84.29;100185.31;5050514;28;20277;-74
2022/06/22 06:51:19;;;;;;;0.00;0.00;;;;;;;16.14;83.80;100190.91;5051939;28;20681;-76
2022/06/22 06:53:56;;;;;;;0.27;0.20;;;;;;;16.22;83.33;100200.19;5051808;28;20174;-74
2022/06/22 06:56:30;;;;;;;0.00;0.00;;;;;;;16.36;83.96;100209.59;5052278;28;20271;-76
2022/06/22 06:59:01;;;;;;;0.30;0.30;;;;;;;16.39;83.11;100215.56;5051179;28;20175;-76
2022/06/22 07:01:30;;;;;;;0.43;0.43;;;;;;;16.31;83.48;100201.59;5051695;28;20257;-74
2022/06/22 07:04:07;;;;;;;0.00;0.00;;;;;;;16.53;82.87;100194.66;5051610;28;20171;-77
2022/06/22 07:06:33;;;;;;;0.43;0.33;;;;;;;16.90;82.23;100197.09;5051512;28;20427;-76
2022/06/22 07:09:08;;;;;;;0.00;0.00;;;;;;;16.77;80.89;100192.84;5051210;28;20179;-73
2022/06/22 07:11:43;;;;;;;0.60;0.60;;;;;;;16.98;81.49;100193.34;5051709;28;20178;-76
2022/06/22 07:14:19;;;;;;;0.00;0.00;;;;;;;17.13;82.35;100195.25;5049971;28;20623;-74
2022/06/22 07:16:48;;;;;;;0.00;0.00;;;;;;;17.29;81.97;100194.38;5051262;28;20175;-76
2022/06/22 07:19:17;;;;;;;1.17;0.83;;;;;;;17.27;80.39;100188.44;5051259;28;20199;-73
2022/06/22 07:21:54;;;;;;;0.43;0.43;;;;;;;17.16;80.16;100190.97;5051221;28;20215;-74
2022/06/22 07:24:23;;;;;;;0.00;0.00;;;;;;;17.33;81.01;100195.25;5051346;28;20197;-75
2022/06/22 07:27:00;;;;;;;0.00;0.00;;;;;;;17.61;80.49;100201.34;5051065;28;20190;-72
2022/06/22 07:29:51;;;;;;;0.00;0.00;;;;;;;17.52;78.16;100200.81;5050724;28;20170;-74
2022/06/22 07:32:39;;;;;;;0.10;0.10;;;;;;;17.46;78.24;100205.78;5020103;28;20215;-76
2022/06/22 07:35:29;;;;;;;0.00;0.00;;;;;;;17.52;77.91;100206.31;5051022;28;20176;-74
2022/06/22 07:38:16;;;;;;;0.10;0.10;;;;;;;17.65;77.15;100199.50;5050207;28;20233;-75
2022/06/22 07:41:18;;;;;;;0.10;0.10;;;;;;;17.81;75.56;100202.97;5051050;28;20163;-74
2022/06/22 07:43:31;;;;;;;0.83;0.47;;;;;;;17.64;74.85;100200.63;5050731;28;20727;-75
2022/06/22 07:45:57;;;;;;;0.27;0.13;;;;;;;17.65;76.31;100201.41;5051376;28;20258;-74
2022/06/22 07:48:24;;;;;;;0.00;0.00;;;;;;;17.83;76.17;100197.09;5050002;28;20278;-74
2022/06/22 07:50:59;;;;;;;0.00;0.00;;;;;;;17.95;75.98;100194.16;5051144;28;20175;-75
2022/06/22 07:53:32;;;;;;;0.00;0.00;;;;;;;18.19;74.64;100197.72;5051047;28;20257;-76
2022/06/22 07:56:04;;;;;;;0.13;0.13;;;;;;;18.33;73.26;100196.00;5050747;28;20623;-76
2022/06/22 07:58:54;;;;;;;0.00;0.00;;;;;;;18.41;73.93;100202.47;5049732;28;20171;-74
2022/06/22 08:01:29;;;;;;;0.00;0.00;;;;;;;18.37;73.42;100204.34;5050663;28;20536;-75
2022/06/22 08:04:00;;;;;;;0.00;0.00;;;;;;;18.67;74.38;100202.53;5050850;28;20270;-76
2022/06/22 08:06:36;;;;;;;0.00;0.00;;;;;;;18.79;73.65;100203.47;5050728;28;20228;-75
2022/06/22 08:09:13;;;;;;;0.57;0.57;;;;;;;18.92;74.47;100202.06;5050069;28;20171;-75
2022/06/22 08:11:43;;;;;;;0.00;0.00;;;;;;;19.00;73.01;100198.25;5050635;28;20207;-75
2022/06/22 08:14:23;;;;;;;0.20;0.20;;;;;;;18.90;72.35;100185.03;5049409;28;20190;-73
2022/06/22 08:16:53;;;;;;;0.00;0.00;;;;;;;18.70;71.98;100181.59;5050210;28;20224;-75
2022/06/22 08:19:20;;;;;;;0.33;0.33;;;;;;;18.86;72.58;100187.75;5049931;28;20179;-73
2022/06/22 08:21:49;;;;;;;0.00;0.00;;;;;;;18.92;72.01;100180.72;5050286;28;20203;-73
2022/06/22 08:24:18;;;;;;;0.00;0.00;;;;;;;19.05;71.17;100186.03;5050257;28;20171;-74
2022/06/22 08:26:46;;;;;;;0.07;0.07;;;;;;;18.98;70.95;100186.75;5049982;28;20172;-73
2022/06/22 08:29:14;;;;;;;0.10;0.10;;;;;;;18.99;71.26;100182.81;5049759;28;20187;-74
2022/06/22 08:31:49;;;;;;;0.00;0.00;;;;;;;18.88;70.94;100188.19;5050141;28;20175;-75
2022/06/22 08:34:21;;;;;;;0.20;0.20;;;;;;;19.11;71.45;100199.19;5050393;28;20228;-76
2022/06/22 08:36:54;;;;;;;0.00;0.00;;;;;;;19.22;69.49;100194.56;5032097;28;20185;-73
2022/06/22 08:39:29;;;;;;;0.00;0.00;;;;;;;19.07;70.22;100192.78;5049648;28;20183;-75
2022/06/22 08:42:15;;;;;;;0.20;0.20;;;;;;;19.44;70.65;100184.56;5050159;28;20713;-73
2022/06/22 08:45:07;;;;;;;0.00;0.00;;;;;;;19.50;69.55;100188.59;5050365;28;20182;-75
2022/06/22 08:47:50;;;;;;;0.00;0.00;;;;;;;19.57;68.17;100185.16;5049319;28;20203;-73
2022/06/22 08:50:27;;;;;;;0.00;0.00;;;;;;;19.65;68.33;100184.03;5050138;28;20179;-77
2022/06/22 08:53:11;;;;;;;0.13;0.07;;;;;;;19.74;67.52;100183.75;5050072;28;20306;-73
2022/06/22 08:56:13;;;;;;;0.00;0.00;;;;;;;19.67;64.38;100178.13;5050150;28;20185;-74
2022/06/22 08:58:56;;;;;;;0.10;0.10;;;;;;;19.61;65.98;100164.59;5049385;28;20233;-74
2022/06/22 09:01:27;;;;;;;0.20;0.20;;;;;;;19.94;63.65;100184.34;5050192;28;20222;-75
2022/06/22 09:04:04;;;;;;;0.00;0.00;;;;;;;19.86;61.33;100183.50;5049931;28;20182;-76
2022/06/22 09:06:54;;;;;;;0.10;0.10;;;;;;;19.82;59.34;100177.13;5050230;28;20183;-73
2022/06/22 09:09:35;;;;;;;0.00;0.00;;;;;;;20.03;62.91;100173.75;5049456;28;20569;-73
2022/06/22 09:12:14;;;;;;;0.00;0.00;;;;;;;20.21;62.83;100171.94;5053400;28;20317;-74
2022/06/22 09:15:06;;;;;;;0.37;0.37;;;;;;;20.39;58.70;100175.63;5052251;28;20175;-73
2022/06/22 09:18:01;;;;;;;0.00;0.00;;;;;;;20.62;59.55;100181.00;5022085;28;20194;-73
2022/06/22 09:20:38;;;;;;;0.00;0.00;;;;;;;20.70;58.44;100192.97;5053782;28;20178;-74
2022/06/22 09:23:28;;;;;;;0.00;0.00;;;;;;;20.47;58.84;100193.19;5053468;28;20207;-73
2022/06/22 09:26:36;;;;;;;0.40;0.40;;;;;;;20.58;57.57;100185.75;5053573;28;20650;-74
2022/06/22 09:29:26;;;;;;;0.10;0.10;;;;;;;20.44;56.97;100186.44;5042110;28;20196;-72
2022/06/22 09:32:02;;;;;;;0.10;0.10;;;;;;;20.68;54.72;100189.75;5053520;28;20260;-74
2022/06/22 09:35:06;;;;;;;0.17;0.17;;;;;;;20.49;56.92;100193.59;5053387;28;20188;-75
2022/06/22 09:37:50;;;;;;;0.00;0.00;;;;;;;20.74;58.78;100200.13;4971492;28;20193;-75
2022/06/22 09:40:34;;;;;;;0.00;0.00;;;;;;;20.97;55.64;100199.88;4972136;28;20187;-76
2022/06/22 09:43:25;;;;;;;0.00;0.00;;;;;;;20.83;57.54;100208.16;5029445;28;20226;-72
2022/06/22 09:46:12;;;;;;;0.00;0.00;;;;;;;21.08;57.98;100205.50;5053212;28;20184;-74
2022/06/22 09:48:37;;;;;;;0.00;0.00;;;;;;;21.03;56.28;100205.88;5052465;28;20191;-73
2022/06/22 09:51:25;;;;;;;0.00;0.00;;;;;;;21.21;56.61;100211.53;5053144;28;20647;-73
2022/06/22 09:57:37;;;;;;;0.13;0.13;;;;;;;20.90;54.95;100204.59;5052838;28;20218;-76
2022/06/22 10:00:11;;;;;;;0.10;0.00;;;;;;;21.05;56.00;100193.19;5052967;28;20187;-75
2022/06/22 10:03:20;;;;;;;0.00;0.00;;;;;;;20.99;55.03;100199.50;5052872;28;20199;-73
2022/06/22 10:06:11;;;;;;;0.40;0.30;;;;;;;21.31;56.23;100208.03;5052783;28;20172;-76
2022/06/22 10:08:54;;;;;;;0.10;0.10;;;;;;;21.50;56.75;100209.69;5052099;28;20691;-75
2022/06/22 10:11:38;;;;;;;0.03;0.03;;;;;;;21.62;55.38;100199.03;5052685;28;20223;-73
2022/06/22 10:14:31;;;;;;;0.00;0.00;;;;;;;21.77;55.14;100204.63;5051258;28;20665;-76
2022/06/22 10:17:06;;;;;;;0.13;0.13;;;;;;;21.90;54.28;100197.50;5052363;28;20280;-76
2022/06/22 10:19:44;;;;;;;0.00;0.00;;;;;;;21.63;52.83;100194.25;5052063;28;20252;-74
2022/06/22 10:22:31;;;;;;;0.00;0.00;;;;;;;21.49;52.43;100199.78;5052488;28;20202;-73
2022/06/22 10:25:31;;;;;;;5.93;1.40;;;;;;;21.60;53.61;100206.19;5052542;28;20569;-75
2022/06/22 10:28:18;;;;;;;0.00;0.00;;;;;;;21.55;52.91;100209.31;5052207;28;20170;-74
2022/06/22 10:31:11;;;;;;;0.00;0.00;;;;;;;21.91;54.09;100202.69;5052548;28;20185;-76
2022/06/22 10:34:06;;;;;;;0.03;0.03;;;;;;;21.77;52.95;100194.31;5052264;28;20205;-76
2022/06/22 10:37:06;;;;;;;0.43;0.43;;;;;;;22.00;55.78;100184.81;5052167;28;20174;-74
2022/06/22 10:40:06;;;;;;;0.83;0.83;;;;;;;22.33;55.59;100186.47;5051832;28;20194;-75
2022/06/22 10:45:55;;;;;;;13.50;0.83;;;;;;;22.13;49.03;100183.25;5052100;28;20532;-74
2022/06/22 10:48:35;;;;;;;0.17;0.17;;;;;;;22.32;50.32;100184.88;5051144;28;20183;-75
2022/06/22 10:51:23;;;;;;;0.00;0.00;;;;;;;22.13;50.23;100188.81;5052182;28;20185;-75
2022/06/22 10:54:15;;;;;;;0.00;0.00;;;;;;;22.32;50.22;100196.81;5051827;28;20784;-74
2022/06/22 10:57:13;;;;;;;0.00;0.00;;;;;;;22.43;50.36;100194.03;5051564;28;20626;-75
2022/06/22 11:00:10;;;;;;;0.00;0.00;;;;;;;22.84;49.66;100197.97;5051443;28;20244;-76
2022/06/22 11:03:09;;;;;;;0.00;0.00;;;;;;;23.00;49.37;100207.91;5051804;28;20597;-74
2022/06/22 11:06:01;;;;;;;0.30;0.30;;;;;;;22.41;48.62;100202.75;5051684;28;20478;-76
2022/06/22 11:08:47;;;;;;;0.00;0.00;;;;;;;22.30;48.62;100199.19;5050998;28;20190;-75
2022/06/22 11:11:22;;;;;;;0.00;0.00;;;;;;;22.56;48.03;100201.56;5051590;28;20536;-76
2022/06/22 11:13:56;;;;;;;0.10;0.10;;;;;;;23.04;50.41;100215.06;5049967;28;20205;-75
2022/06/22 11:16:39;;;;;;;0.00;0.00;;;;;;;23.33;46.90;100207.44;5051485;28;20174;-74
2022/06/22 11:19:42;;;;;;;0.10;0.10;;;;;;;23.41;44.31;100206.19;5050824;28;20183;-74
2022/06/22 11:22:32;;;;;;;0.00;0.00;;;;;;;22.91;45.53;100207.53;5051247;28;20692;-75
2022/06/22 11:25:02;;;;;;;0.00;0.00;;;;;;;23.14;46.43;100205.88;5051507;28;20179;-75
2022/06/22 11:30:56;;;;;;;0.00;0.00;;;;;;;23.00;46.00;100207.91;5051012;28;20186;-74
2022/06/22 11:33:44;;;;;;;0.00;0.00;;;;;;;23.65;46.92;100201.72;5050670;28;20167;-75
2022/06/22 11:36:24;;;;;;;0.20;0.20;;;;;;;23.48;44.71;100202.59;5051078;28;20186;-75
2022/06/22 11:38:58;;;;;;;0.30;0.30;;;;;;;23.57;44.27;100193.75;5050308;28;20251;-72
2022/06/22 11:41:27;;;;;;;0.00;0.00;;;;;;;23.46;44.11;100199.41;5050991;28;20173;-74
2022/06/22 11:44:03;;;;;;;0.00;0.00;;;;;;;23.65;43.27;100184.19;5050964;28;20710;-75
2022/06/22 11:46:42;;;;;;;0.00;0.00;;;;;;;23.66;44.20;100189.38;5050787;28;20173;-74
2022/06/22 11:49:08;;;;;;;0.00;0.00;;;;;;;23.88;45.12;100187.28;5050506;28;20253;-74
2022/06/22 11:52:07;;;;;;;0.00;0.00;;;;;;;23.79;44.60;100180.53;5050913;28;20326;-75
2022/06/22 11:54:50;;;;;;;0.00;0.00;;;;;;;23.84;44.61;100185.69;5050774;28;20171;-75
2022/06/22 11:57:25;;;;;;;0.10;0.10;;;;;;;23.63;43.46;100179.03;5051146;28;20178;-76
2022/06/22 12:00:06;;;;;;;0.30;0.30;;;;;;;23.50;43.76;100175.09;5050327;28;20181;-74
2022/06/22 12:03:04;;;;;;;0.00;0.00;;;;;;;23.31;44.60;100176.38;5051039;28;20203;-75
2022/06/22 12:06:01;;;;;;;0.00;0.00;;;;;;;23.74;46.02;100167.81;5051077;28;20209;-76
2022/06/22 12:08:53;;;;;;;0.00;0.00;;;;;;;24.00;44.17;100155.28;5049995;28;20259;-76
2022/06/22 12:11:24;;;;;;;0.00;0.00;;;;;;;23.97;43.71;100148.53;5050483;28;20183;-74
2022/06/22 12:16:56;;;;;;;1.60;1.03;;;;;;;24.26;42.68;100143.50;5050155;28;20194;-76
2022/06/22 12:19:48;;;;;;;1.60;0.20;;;;;;;24.14;42.64;100146.00;5050027;28;20175;-75
2022/06/22 12:22:43;;;;;;;0.10;0.10;;;;;;;23.80;42.79;100141.06;5050351;28;20248;-75
2022/06/22 12:25:32;;;;;;;0.00;0.00;;;;;;;23.85;44.06;100143.41;5049983;28;20195;-75
2022/06/22 12:28:15;;;;;;;0.00;0.00;;;;;;;24.04;42.83;100134.53;5049688;28;20176;-76
2022/06/22 12:30:49;;;;;;;0.07;0.07;;;;;;;23.83;42.07;100128.28;5050315;28;20222;-75
2022/06/22 12:33:23;;;;;;;0.00;0.00;;;;;;;24.10;41.22;100128.50;5032565;28;20316;-74